createdAt,value
2023-05-09T00:01:11.866Z,19.60
2023-05-09T00:03:39.435Z,18.67
2023-05-09T00:06:07.044Z,19.70
2023-05-09T00:08:34.531Z,19.20
2023-05-09T00:11:02.112Z,19.57
2023-05-09T00:13:29.193Z,19.50
2023-05-09T00:15:57.343Z,19.17
2023-05-09T00:18:24.605Z,20.43
2023-05-09T00:20:51.680Z,22.40
2023-05-09T00:23:18.837Z,20.10
2023-05-09T00:25:45.878Z,19.93
2023-05-09T00:28:12.982Z,20.13
2023-05-09T00:30:40.100Z,19.97
2023-05-09T00:33:07.344Z,19.73
2023-05-09T00:35:34.958Z,20.03
2023-05-09T00:38:02.020Z,20.20
2023-05-09T00:40:29.099Z,20.73
2023-05-09T00:42:58.597Z,20.83
2023-05-09T00:45:25.749Z,21.63
2023-05-09T00:47:52.893Z,20.83
2023-05-09T00:50:20.804Z,21.57
2023-05-09T00:52:47.862Z,20.90
2023-05-09T00:55:16.237Z,22.53
2023-05-09T00:57:43.591Z,22.43
2023-05-09T01:00:14.152Z,22.00
2023-05-09T01:02:42.375Z,23.67
2023-05-09T01:05:10.054Z,23.10
2023-05-09T01:07:43.135Z,22.63
2023-05-09T01:10:28.768Z,21.03
2023-05-09T01:12:56.276Z,22.90
2023-05-09T01:15:32.317Z,21.87
2023-05-09T01:18:01.756Z,21.43
2023-05-09T01:20:48.356Z,21.83
2023-05-09T01:23:18.387Z,22.17
2023-05-09T01:26:04.174Z,24.53
2023-05-09T01:28:36.117Z,21.83
2023-05-09T01:31:03.828Z,21.37
2023-05-09T01:33:33.604Z,22.13
2023-05-09T01:36:04.907Z,24.20
2023-05-09T01:38:33.329Z,22.13
2023-05-09T01:41:01.387Z,22.13
2023-05-09T01:43:29.544Z,21.40
2023-05-09T01:45:57.936Z,21.83
2023-05-09T01:48:30.071Z,23.67
2023-05-09T01:50:58.195Z,21.73
2023-05-09T01:53:26.415Z,22.77
2023-05-09T01:55:53.531Z,24.13
2023-05-09T01:58:21.413Z,22.70
2023-05-09T02:00:49.391Z,21.97
2023-05-09T02:03:16.949Z,22.77
2023-05-09T02:05:45.351Z,21.97
2023-05-09T02:08:14.575Z,22.90
2023-05-09T02:10:42.399Z,23.27
2023-05-09T02:13:09.500Z,23.13
2023-05-09T02:15:36.606Z,24.50
2023-05-09T02:18:03.758Z,22.80
2023-05-09T02:20:30.861Z,23.00
2023-05-09T02:22:58.122Z,23.50
2023-05-09T02:25:25.214Z,23.73
2023-05-09T02:27:52.872Z,22.73
2023-05-09T02:30:24.271Z,22.53
2023-05-09T02:32:52.971Z,22.73
2023-05-09T02:35:20.445Z,21.13
2023-05-09T02:37:48.218Z,22.63
2023-05-09T02:40:15.492Z,23.23
2023-05-09T02:42:42.646Z,23.73
2023-05-09T02:45:11.052Z,22.73
2023-05-09T02:47:38.624Z,22.23
2023-05-09T02:50:06.354Z,22.90
2023-05-09T02:52:33.450Z,21.87
2023-05-09T02:55:00.584Z,21.93
2023-05-09T02:57:27.725Z,23.53
2023-05-09T02:59:55.039Z,22.17
2023-05-09T03:02:23.767Z,23.00
2023-05-09T03:04:50.950Z,21.60
2023-05-09T03:07:18.527Z,23.43
2023-05-09T03:09:45.746Z,22.07
2023-05-09T03:12:13.140Z,22.47
2023-05-09T03:14:40.361Z,21.77
2023-05-09T03:17:07.458Z,19.73
2023-05-09T03:19:34.547Z,21.63
2023-05-09T03:22:01.683Z,21.27
2023-05-09T03:24:28.772Z,20.83
2023-05-09T03:26:55.855Z,21.40
2023-05-09T03:29:23.326Z,21.13
2023-05-09T03:31:50.467Z,20.90
2023-05-09T03:34:17.658Z,20.83
2023-05-09T03:36:45.169Z,22.57
2023-05-09T03:39:12.292Z,20.33
2023-05-09T03:41:39.558Z,20.90
2023-05-09T03:44:06.778Z,19.73
2023-05-09T03:46:33.908Z,19.87
2023-05-09T03:49:01.076Z,20.67
2023-05-09T03:51:28.121Z,21.23
2023-05-09T03:53:55.532Z,21.50
2023-05-09T03:56:22.747Z,19.60
2023-05-09T03:58:49.855Z,20.07
2023-05-09T04:01:16.989Z,21.00
2023-05-09T04:03:44.432Z,20.10
2023-05-09T04:06:11.596Z,18.47
2023-05-09T04:08:38.733Z,19.37
2023-05-09T04:11:06.066Z,17.20
2023-05-09T04:13:34.735Z,19.27
2023-05-09T04:16:01.866Z,19.20
2023-05-09T04:18:28.991Z,19.10
2023-05-09T04:20:56.156Z,18.70
2023-05-09T04:23:24.049Z,18.83
2023-05-09T04:25:51.994Z,18.63
2023-05-09T04:28:20.378Z,17.37
2023-05-09T04:30:47.521Z,18.23
2023-05-09T04:33:14.702Z,18.30
2023-05-09T04:35:41.782Z,17.43
2023-05-09T04:38:08.870Z,17.80
2023-05-09T04:40:36.325Z,17.57
2023-05-09T04:43:04.109Z,17.60
2023-05-09T04:45:31.842Z,17.70
2023-05-09T04:47:58.986Z,16.77
2023-05-09T04:50:26.123Z,17.57
2023-05-09T04:52:53.161Z,17.07
2023-05-09T04:55:20.521Z,17.77
2023-05-09T04:57:47.642Z,17.40
2023-05-09T05:00:16.821Z,17.47
2023-05-09T05:02:44.129Z,17.80
2023-05-09T05:05:12.741Z,16.90
2023-05-09T05:07:40.430Z,16.43
2023-05-09T05:10:07.982Z,17.43
2023-05-09T05:12:35.131Z,16.63
2023-05-09T05:15:02.247Z,16.80
2023-05-09T05:17:30.550Z,16.03
2023-05-09T05:19:57.790Z,18.27
2023-05-09T05:22:24.965Z,16.93
2023-05-09T05:24:52.333Z,17.97
2023-05-09T05:27:19.529Z,16.10
2023-05-09T05:29:46.595Z,16.37
2023-05-09T05:32:13.882Z,15.30
2023-05-09T05:34:41.185Z,16.30
2023-05-09T05:37:08.324Z,15.90
2023-05-09T05:39:35.426Z,16.50
2023-05-09T05:42:02.538Z,16.77
2023-05-09T05:44:29.608Z,17.10
2023-05-09T05:46:56.717Z,16.53
2023-05-09T05:49:25.015Z,17.07
2023-05-09T05:51:52.413Z,16.87
2023-05-09T05:54:19.585Z,17.00
2023-05-09T05:56:46.879Z,15.53
2023-05-09T05:59:15.420Z,16.70
2023-05-09T06:01:43.198Z,17.33
2023-05-09T06:04:10.778Z,16.83
2023-05-09T06:06:37.979Z,18.23
2023-05-09T06:09:05.101Z,19.17
2023-05-09T06:11:32.194Z,17.13
2023-05-09T06:13:59.260Z,16.90
2023-05-09T06:16:26.362Z,18.13
2023-05-09T06:18:55.776Z,17.73
2023-05-09T06:21:23.490Z,17.47
2023-05-09T06:24:01.983Z,17.97
2023-05-09T06:26:33.376Z,17.40
2023-05-09T06:29:00.480Z,18.50
2023-05-09T06:31:27.726Z,18.70
2023-05-09T06:33:54.842Z,18.67
2023-05-09T06:36:22.528Z,18.43
2023-05-09T06:38:49.782Z,17.50
2023-05-09T06:41:17.120Z,18.20
2023-05-09T06:43:44.235Z,20.17
2023-05-09T06:46:11.400Z,19.40
2023-05-09T06:48:38.501Z,17.93
2023-05-09T06:51:05.709Z,19.00
2023-05-09T06:53:32.906Z,18.43
2023-05-09T06:56:00.401Z,17.80
2023-05-09T06:58:27.521Z,18.70
2023-05-09T07:00:54.772Z,18.20
2023-05-09T07:03:22.001Z,18.03
2023-05-09T07:05:49.178Z,18.40
2023-05-09T07:08:16.281Z,18.30
2023-05-09T07:10:43.427Z,18.10
2023-05-09T07:13:10.542Z,18.10
2023-05-09T07:15:42.159Z,17.27
2023-05-09T07:18:10.361Z,18.17
2023-05-09T07:20:37.578Z,19.37
2023-05-09T07:23:05.856Z,18.87
2023-05-09T07:25:32.969Z,19.13
2023-05-09T07:28:00.052Z,19.33
2023-05-09T07:30:27.247Z,20.23
2023-05-09T07:32:54.525Z,19.90
2023-05-09T07:35:21.684Z,19.63
2023-05-09T07:37:49.042Z,19.90
2023-05-09T07:40:16.546Z,19.47
2023-05-09T07:42:49.517Z,19.63
2023-05-09T07:45:17.083Z,18.83
2023-05-09T07:47:44.990Z,20.83
2023-05-09T07:50:12.108Z,20.13
2023-05-09T07:52:39.198Z,20.03
2023-05-09T07:55:06.639Z,21.00
2023-05-09T07:57:34.572Z,19.93
2023-05-09T08:00:01.633Z,21.37
2023-05-09T08:02:28.803Z,21.43
2023-05-09T08:04:55.900Z,22.87
2023-05-09T08:07:22.966Z,20.20
2023-05-09T08:09:50.874Z,22.07
2023-05-09T08:12:18.680Z,20.77
2023-05-09T08:14:45.809Z,20.50
2023-05-09T08:17:12.851Z,24.00
2023-05-09T08:19:39.888Z,20.57
2023-05-09T08:22:07.033Z,21.03
2023-05-09T08:24:34.185Z,20.00
2023-05-09T08:27:01.399Z,19.90
2023-05-09T08:29:28.963Z,20.23
2023-05-09T08:31:56.210Z,20.93
2023-05-09T08:34:23.314Z,18.30
2023-05-09T08:36:50.358Z,21.03
2023-05-09T08:39:18.049Z,18.50
2023-05-09T08:41:45.139Z,20.77
2023-05-09T08:44:12.298Z,19.20
2023-05-09T08:46:40.189Z,18.27
2023-05-09T08:49:08.294Z,18.03
2023-05-09T08:51:38.468Z,17.53
2023-05-09T08:54:06.018Z,16.83
2023-05-09T08:56:33.111Z,17.63
2023-05-09T08:59:00.262Z,17.17
2023-05-09T09:01:28.283Z,16.45
2023-05-09T09:03:55.933Z,17.27
2023-05-09T09:06:25.726Z,18.15
2023-05-09T09:08:54.595Z,16.80
2023-05-09T09:11:22.654Z,16.73
2023-05-09T09:13:52.268Z,17.15
2023-05-09T09:16:21.131Z,17.80
2023-05-09T09:18:48.944Z,17.57
2023-05-09T09:21:17.219Z,14.50
2023-05-09T09:23:45.084Z,16.15
2023-05-09T09:26:12.515Z,16.70
2023-05-09T09:28:39.790Z,17.97
2023-05-09T09:31:22.129Z,17.87
2023-05-09T09:33:49.696Z,17.93
2023-05-09T09:36:16.906Z,16.57
2023-05-09T09:38:44.630Z,16.43
2023-05-09T09:41:12.962Z,17.57
2023-05-09T09:43:44.770Z,17.27
2023-05-09T09:46:12.068Z,19.47
2023-05-09T09:48:40.500Z,18.93
2023-05-09T09:51:11.399Z,19.10
2023-05-09T09:53:42.182Z,18.13
2023-05-09T09:56:09.616Z,19.57
2023-05-09T09:58:37.216Z,17.10
2023-05-09T10:01:13.693Z,17.97
2023-05-09T10:03:41.755Z,17.73
2023-05-09T10:06:16.003Z,18.87
2023-05-09T10:08:48.890Z,17.90
2023-05-09T10:11:16.271Z,18.23
2023-05-09T10:13:44.508Z,17.17
2023-05-09T10:16:12.189Z,18.20
2023-05-09T10:18:40.309Z,17.70
2023-05-09T10:21:08.701Z,15.95
2023-05-09T10:23:39.269Z,16.27
2023-05-09T10:26:13.487Z,15.63
2023-05-09T10:28:42.217Z,16.50
2023-05-09T10:31:28.249Z,15.23
2023-05-09T10:33:58.727Z,15.30
2023-05-09T10:36:25.997Z,14.68
2023-05-09T10:38:54.808Z,15.00
2023-05-09T10:41:22.719Z,15.52
2023-05-09T10:43:50.068Z,14.77
2023-05-09T10:46:17.690Z,15.40
2023-05-09T10:48:45.223Z,15.20
2023-05-09T10:51:12.980Z,14.85
2023-05-09T10:53:47.881Z,13.25
2023-05-09T10:56:31.919Z,12.90
2023-05-09T10:59:02.665Z,13.10
2023-05-09T11:01:32.904Z,12.88
2023-05-09T11:04:00.554Z,12.25
2023-05-09T11:06:47.564Z,12.82
2023-05-09T11:09:28.145Z,11.88
2023-05-09T11:11:59.329Z,12.65
2023-05-09T11:14:30.169Z,11.73
2023-05-09T11:16:58.409Z,11.63
2023-05-09T11:19:35.252Z,10.07
2023-05-09T11:22:03.501Z,9.35
2023-05-09T11:24:32.689Z,8.20
2023-05-09T11:27:00.191Z,10.45
2023-05-09T11:29:28.340Z,10.20
2023-05-09T11:32:08.147Z,9.50
2023-05-09T11:34:35.461Z,9.15
2023-05-09T11:37:08.229Z,9.25
2023-05-09T11:39:36.798Z,9.82
2023-05-09T11:42:04.923Z,12.55
2023-05-09T11:44:33.456Z,9.13
2023-05-09T11:47:00.821Z,9.93
2023-05-09T11:49:28.802Z,8.63
2023-05-09T11:51:59.976Z,9.32
2023-05-09T11:54:27.136Z,8.27
2023-05-09T11:56:54.225Z,7.95
2023-05-09T11:59:21.516Z,8.30
2023-05-09T12:01:49.028Z,10.18
2023-05-09T12:04:16.458Z,8.02
2023-05-09T12:06:48.887Z,7.25
2023-05-09T12:09:16.218Z,9.95
2023-05-09T12:11:50.416Z,8.85
2023-05-09T12:14:34.341Z,7.30
2023-05-09T12:17:01.985Z,7.10
2023-05-09T12:19:29.671Z,7.82
2023-05-09T12:22:00.615Z,7.05
2023-05-09T12:24:28.408Z,8.02
2023-05-09T12:26:56.771Z,8.95
2023-05-09T12:29:24.593Z,8.52
2023-05-09T12:31:52.703Z,8.77
2023-05-09T12:34:19.941Z,9.05
2023-05-09T12:36:50.876Z,9.45
2023-05-09T12:39:22.939Z,8.32
2023-05-09T12:42:01.029Z,7.63
2023-05-09T12:44:29.819Z,7.07
2023-05-09T12:46:58.359Z,6.63
2023-05-09T12:49:26.426Z,6.72
2023-05-09T12:51:54.449Z,10.27
2023-05-09T12:54:22.540Z,6.72
2023-05-09T12:56:52.127Z,6.90
2023-05-09T12:59:23.937Z,6.00
2023-05-09T13:01:58.048Z,6.57
2023-05-09T13:04:26.001Z,10.18
2023-05-09T13:06:55.526Z,6.60
2023-05-09T13:09:23.587Z,6.07
2023-05-09T13:11:51.954Z,6.18
2023-05-09T13:14:20.594Z,7.00
2023-05-09T13:16:47.805Z,6.30
2023-05-09T13:19:17.966Z,7.05
2023-05-09T13:21:45.671Z,7.18
2023-05-09T13:24:12.912Z,7.47
2023-05-09T13:26:39.971Z,7.00
2023-05-09T13:29:07.842Z,6.88
2023-05-09T13:31:35.402Z,6.70
2023-05-09T13:34:02.505Z,6.93
2023-05-09T13:36:29.555Z,9.80
2023-05-09T13:38:57.132Z,10.63
2023-05-09T13:41:24.636Z,8.65
2023-05-09T13:43:52.392Z,7.75
2023-05-09T13:46:19.549Z,8.23
2023-05-09T13:48:47.887Z,7.57
2023-05-09T13:51:15.106Z,8.05
2023-05-09T13:53:42.367Z,8.48
2023-05-09T13:56:09.982Z,8.38
2023-05-09T13:58:37.274Z,9.48
2023-05-09T14:01:04.513Z,9.82
2023-05-09T14:03:32.301Z,9.23
2023-05-09T14:05:59.767Z,19.13
2023-05-09T14:08:27.329Z,23.25
2023-05-09T14:10:54.806Z,31.10
2023-05-09T14:13:22.262Z,14.73
2023-05-09T14:15:49.620Z,22.10
2023-05-09T14:18:20.125Z,14.10
2023-05-09T14:20:48.461Z,10.23
2023-05-09T14:23:15.694Z,11.60
2023-05-09T14:25:42.944Z,17.67
2023-05-09T14:28:10.323Z,11.63
2023-05-09T14:30:40.881Z,11.30
2023-05-09T14:33:08.619Z,12.33
2023-05-09T14:35:35.772Z,8.63
2023-05-09T14:38:02.955Z,9.37
2023-05-09T14:40:32.004Z,7.87
2023-05-09T14:43:02.369Z,8.60
2023-05-09T14:45:29.927Z,8.03
2023-05-09T14:47:57.304Z,7.53
2023-05-09T14:50:24.556Z,8.10
2023-05-09T14:52:52.557Z,9.20
2023-05-09T14:55:20.028Z,8.70
2023-05-09T14:57:47.088Z,10.97
2023-05-09T15:00:21.216Z,8.20
2023-05-09T15:02:50.709Z,9.83
2023-05-09T15:05:17.990Z,13.30
2023-05-09T15:07:45.057Z,10.67
2023-05-09T15:10:12.274Z,12.93
2023-05-09T15:12:39.504Z,11.47
2023-05-09T15:15:14.313Z,9.27
2023-05-09T15:17:41.935Z,8.67
2023-05-09T15:20:11.391Z,6.67
2023-05-09T15:22:38.468Z,7.23
2023-05-09T15:25:06.337Z,8.60
2023-05-09T15:27:33.814Z,8.83
2023-05-09T15:30:01.389Z,8.10
2023-05-09T15:32:28.672Z,10.90
2023-05-09T15:34:55.826Z,8.30
2023-05-09T15:37:22.934Z,8.10
2023-05-09T15:39:50.029Z,7.97
2023-05-09T15:42:17.562Z,7.93
2023-05-09T15:44:44.700Z,6.27
2023-05-09T15:47:11.803Z,6.47
2023-05-09T15:49:39.760Z,7.27
2023-05-09T15:52:08.065Z,9.40
2023-05-09T15:54:35.875Z,6.73
2023-05-09T15:57:03.077Z,7.87
2023-05-09T15:59:30.227Z,8.17
2023-05-09T16:01:57.365Z,8.37
2023-05-09T16:04:24.660Z,8.70
2023-05-09T16:06:52.014Z,10.00
2023-05-09T16:09:19.628Z,10.03
2023-05-09T16:11:46.811Z,10.70
2023-05-09T16:14:14.031Z,10.17
2023-05-09T16:16:42.705Z,11.00
2023-05-09T16:19:09.837Z,18.27
2023-05-09T16:21:37.701Z,10.90
2023-05-09T16:24:05.057Z,11.83
2023-05-09T16:26:32.268Z,10.97
2023-05-09T16:28:59.306Z,11.97
2023-05-09T16:31:27.252Z,11.10
2023-05-09T16:33:54.852Z,11.17
2023-05-09T16:36:22.747Z,16.87
2023-05-09T16:38:49.861Z,11.27
2023-05-09T16:41:17.084Z,10.47
2023-05-09T16:43:44.197Z,10.17
2023-05-09T16:46:11.437Z,11.03
2023-05-09T16:48:38.565Z,11.20
2023-05-09T16:51:07.148Z,11.50
2023-05-09T16:53:34.215Z,9.87
2023-05-09T16:56:01.305Z,10.57
2023-05-09T16:58:28.577Z,9.90
2023-05-09T17:00:56.028Z,9.70
2023-05-09T17:03:23.135Z,10.23
2023-05-09T17:05:51.133Z,10.10
2023-05-09T17:08:18.240Z,10.40
2023-05-09T17:10:45.456Z,9.67
2023-05-09T17:13:12.573Z,12.40
2023-05-09T17:15:40.098Z,13.73
2023-05-09T17:18:07.262Z,10.50
2023-05-09T17:20:35.630Z,12.23
2023-05-09T17:23:02.731Z,12.17
2023-05-09T17:25:30.542Z,17.20
2023-05-09T17:27:57.679Z,27.53
2023-05-09T17:30:25.042Z,51.10
2023-05-09T17:32:52.087Z,48.70
2023-05-09T17:35:20.717Z,67.80
2023-05-09T17:37:47.796Z,26.40
2023-05-09T17:40:15.590Z,17.10
2023-05-09T17:42:42.873Z,16.80
2023-05-09T17:45:12.262Z,15.93
2023-05-09T17:47:39.609Z,18.93
2023-05-09T17:50:17.333Z,20.73
2023-05-09T17:52:44.659Z,17.97
2023-05-09T17:55:12.206Z,21.23
2023-05-09T17:57:39.489Z,16.57
2023-05-09T18:00:09.206Z,15.80
2023-05-09T18:02:40.584Z,16.00
2023-05-09T18:05:11.150Z,16.70
2023-05-09T18:07:40.321Z,16.50
2023-05-09T18:10:08.786Z,16.60
2023-05-09T18:12:37.353Z,11.63
2023-05-09T18:15:04.867Z,10.47
2023-05-09T18:17:32.107Z,9.23
2023-05-09T18:19:59.310Z,10.30
2023-05-09T18:22:26.428Z,11.37
2023-05-09T18:24:53.756Z,9.43
2023-05-09T18:27:21.298Z,9.57
2023-05-09T18:29:48.722Z,10.60
2023-05-09T18:32:17.452Z,10.37
2023-05-09T18:34:44.722Z,10.40
2023-05-09T18:37:12.226Z,12.80
2023-05-09T18:39:39.721Z,9.53
2023-05-09T18:42:06.767Z,8.33
2023-05-09T18:44:33.882Z,7.83
2023-05-09T18:47:00.984Z,8.23
2023-05-09T18:49:28.084Z,9.43
2023-05-09T18:51:56.465Z,8.70
2023-05-09T18:54:24.454Z,10.40
2023-05-09T18:56:51.533Z,8.80
2023-05-09T18:59:18.624Z,8.30
2023-05-09T19:01:45.706Z,8.80
2023-05-09T19:04:14.040Z,8.53
2023-05-09T19:06:42.308Z,8.73
2023-05-09T19:09:09.443Z,10.93
2023-05-09T19:11:36.764Z,8.27
2023-05-09T19:14:04.905Z,7.97
2023-05-09T19:16:32.132Z,11.17
2023-05-09T19:18:59.503Z,8.00
2023-05-09T19:21:26.606Z,8.87
2023-05-09T19:23:54.971Z,8.27
2023-05-09T19:26:22.145Z,9.40
2023-05-09T19:28:49.301Z,9.57
2023-05-09T19:31:16.555Z,9.87
2023-05-09T19:33:47.969Z,9.67
2023-05-09T19:36:15.079Z,10.30
2023-05-09T19:38:42.172Z,10.80
2023-05-09T19:41:09.664Z,10.87
2023-05-09T19:43:36.928Z,10.30
2023-05-09T19:46:04.273Z,10.10
2023-05-09T19:48:31.664Z,10.87
2023-05-09T19:51:00.427Z,11.07
2023-05-09T19:53:27.596Z,11.73
2023-05-09T19:55:54.803Z,10.93
2023-05-09T19:58:21.937Z,12.30
2023-05-09T20:00:49.047Z,11.10
2023-05-09T20:03:16.263Z,11.73
2023-05-09T20:05:43.509Z,12.50
2023-05-09T20:08:10.862Z,17.43
2023-05-09T20:10:38.226Z,13.17
2023-05-09T20:13:06.567Z,13.67
2023-05-09T20:15:33.893Z,14.27
2023-05-09T20:18:03.542Z,14.40
2023-05-09T20:20:33.884Z,13.70
2023-05-09T20:23:01.869Z,12.73
2023-05-09T20:25:28.998Z,14.67
2023-05-09T20:27:56.336Z,16.50
2023-05-09T20:30:23.414Z,14.73
2023-05-09T20:32:51.010Z,14.53
2023-05-09T20:35:18.231Z,14.90
2023-05-09T20:37:45.624Z,16.37
2023-05-09T20:40:14.024Z,16.17
2023-05-09T20:42:41.696Z,15.63
2023-05-09T20:45:09.054Z,14.63
2023-05-09T20:47:36.306Z,15.80
2023-05-09T20:50:03.714Z,15.97
2023-05-09T20:52:31.024Z,15.57
2023-05-09T20:54:59.583Z,17.30
2023-05-09T20:57:29.075Z,16.07
2023-05-09T20:59:56.471Z,15.67
2023-05-09T21:02:23.892Z,15.93
2023-05-09T21:04:51.393Z,15.23
2023-05-09T21:07:19.437Z,16.37
2023-05-09T21:09:50.756Z,16.27
2023-05-09T21:12:18.044Z,16.87
2023-05-09T21:14:45.329Z,15.57
2023-05-09T21:17:12.548Z,15.87
2023-05-09T21:19:39.952Z,16.40
2023-05-09T21:22:07.061Z,16.67
2023-05-09T21:24:34.283Z,16.47
2023-05-09T21:27:01.488Z,17.40
2023-05-09T21:29:28.936Z,16.30
2023-05-09T21:31:56.333Z,16.97
2023-05-09T21:34:25.218Z,16.13
2023-05-09T21:36:52.448Z,16.53
2023-05-09T21:39:20.545Z,17.20
2023-05-09T21:41:47.866Z,15.20
2023-05-09T21:44:15.262Z,15.20
2023-05-09T21:46:46.188Z,15.47
2023-05-09T21:49:16.705Z,15.83
2023-05-09T21:51:44.004Z,16.17
2023-05-09T21:54:11.221Z,15.60
2023-05-09T21:56:38.560Z,15.33
2023-05-09T21:59:06.142Z,15.97
2023-05-09T22:01:33.382Z,15.60
2023-05-09T22:04:00.765Z,14.87
2023-05-09T22:06:28.099Z,14.13
2023-05-09T22:08:55.327Z,13.47
2023-05-09T22:11:22.614Z,14.30
2023-05-09T22:13:50.026Z,14.20
2023-05-09T22:16:17.879Z,15.03
2023-05-09T22:18:45.272Z,14.23
2023-05-09T22:21:12.782Z,7.97
2023-05-09T22:23:39.976Z,7.90
2023-05-09T22:26:07.222Z,8.40
2023-05-09T22:28:34.380Z,7.23
2023-05-09T22:31:01.517Z,6.90
2023-05-09T22:33:29.201Z,6.70
2023-05-09T22:35:56.263Z,5.67
2023-05-09T22:38:24.080Z,5.23
2023-05-09T22:40:51.468Z,4.63
2023-05-09T22:43:18.604Z,4.10
2023-05-09T22:45:46.005Z,3.83
2023-05-09T22:48:13.094Z,4.13
2023-05-09T22:50:40.361Z,4.57
2023-05-09T22:53:07.448Z,3.17
2023-05-09T22:55:34.661Z,3.27
2023-05-09T22:58:01.711Z,2.70
2023-05-09T23:00:28.971Z,2.60
2023-05-09T23:02:56.237Z,2.77
2023-05-09T23:05:23.435Z,2.50
2023-05-09T23:07:51.888Z,2.60
2023-05-09T23:10:19.229Z,2.83
2023-05-09T23:12:46.432Z,2.83
2023-05-09T23:15:13.514Z,4.63
2023-05-09T23:17:40.584Z,3.10
2023-05-09T23:20:08.739Z,2.80
2023-05-09T23:22:35.892Z,3.93
2023-05-09T23:25:03.317Z,2.87
2023-05-09T23:27:31.194Z,2.63
2023-05-09T23:29:58.667Z,3.33
2023-05-09T23:32:25.883Z,3.23
2023-05-09T23:34:53.508Z,5.17
2023-05-09T23:37:21.133Z,6.27
2023-05-09T23:39:48.424Z,3.00
2023-05-09T23:42:15.538Z,4.30
2023-05-09T23:44:42.743Z,3.40
2023-05-09T23:47:09.914Z,3.47
2023-05-09T23:49:37.125Z,4.90
2023-05-09T23:52:04.310Z,3.37
2023-05-09T23:54:31.550Z,4.10
2023-05-09T23:56:59.131Z,3.97
2023-05-09T23:59:26.309Z,3.83
